Time;durP1;ratioP1;P1;durP2;ratioP2;P2;SDS_P1;SDS_P2;PMS_P1;PMS_P2;Temp;Humidity;BMP_temperature;BMP_pressure;BME280_temperature;BME280_humidity;BME280_pressure;Samples;Min_cycle;Max_cycle;Signal;HPM_P1;HPM_P2
2023/11/27 00:02:23;;;;;;;2.58;1.48;;;;;;;;;;10568655;27;20655;-75
2023/11/27 00:07:26;;;;;;;8.98;1.90;;;;;;;;;;10539031;27;20451;-73
2023/11/27 00:12:29;;;;;;;3.38;1.70;;;;;;;;;;10547957;27;20038;-75
2023/11/27 00:17:34;;;;;;;2.10;0.97;;;;;;;;;;10531398;27;20169;-75
2023/11/27 00:22:36;;;;;;;6.07;2.30;;;;;;;;;;10534886;27;20035;-75
2023/11/27 00:27:42;;;;;;;6.93;2.07;;;;;;;;;;10553683;27;20047;-75
2023/11/27 00:32:47;;;;;;;3.67;1.83;;;;;;;;;;10553426;27;20051;-75
2023/11/27 00:37:49;;;;;;;1.80;1.17;;;;;;;;;;10556890;27;20704;-75
2023/11/27 00:42:53;;;;;;;4.13;1.83;;;;;;;;;;10533931;27;20109;-75
2023/11/27 00:47:59;;;;;;;5.72;2.67;;;;;;;;;;10531924;27;20034;-73
2023/11/27 00:53:03;;;;;;;5.57;2.00;;;;;;;;;;10536089;27;20065;-75
2023/11/27 00:58:07;;;;;;;4.97;1.80;;;;;;;;;;10534298;28;20122;-75
2023/11/27 01:03:11;;;;;;;3.43;1.73;;;;;;;;;;10539198;28;20074;-75
2023/11/27 01:08:14;;;;;;;3.87;1.10;;;;;;;;;;10546870;27;20111;-75
2023/11/27 01:13:18;;;;;;;1.00;0.37;;;;;;;;;;10529940;28;20051;-75
2023/11/27 01:18:23;;;;;;;5.80;1.60;;;;;;;;;;10532777;27;20510;-76
2023/11/27 01:23:26;;;;;;;1.17;1.00;;;;;;;;;;10554100;28;20524;-76
2023/11/27 01:28:30;;;;;;;1.77;1.00;;;;;;;;;;10552141;28;20112;-76
2023/11/27 01:33:35;;;;;;;3.83;1.50;;;;;;;;;;10547239;28;20404;-78
2023/11/27 01:38:37;;;;;;;3.08;1.23;;;;;;;;;;10553462;28;20052;-76
2023/11/27 01:43:41;;;;;;;0.52;0.43;;;;;;;;;;10499993;28;20048;-76
2023/11/27 01:48:50;;;;;;;1.10;0.63;;;;;;;;;;10554939;28;20049;-76
2023/11/27 01:53:54;;;;;;;2.75;1.50;;;;;;;;;;10530953;28;20043;-75
2023/11/27 01:58:58;;;;;;;1.13;0.82;;;;;;;;;;10529364;28;20566;-75
2023/11/27 02:04:03;;;;;;;2.03;1.10;;;;;;;;;;10558225;27;20040;-75
2023/11/27 02:09:07;;;;;;;1.73;0.97;;;;;;;;;;10556392;27;20350;-75
2023/11/27 02:14:15;;;;;;;1.30;0.70;;;;;;;;;;10527550;28;20104;-74
2023/11/27 02:19:19;;;;;;;1.42;1.00;;;;;;;;;;10518117;28;20031;-75
2023/11/27 02:24:24;;;;;;;2.42;0.22;;;;;;;;;;10533111;28;20047;-74
2023/11/27 02:29:27;;;;;;;2.63;1.17;;;;;;;;;;10531638;28;20064;-75
2023/11/27 02:34:30;;;;;;;1.73;1.40;;;;;;;;;;10538388;28;20138;-75
2023/11/27 02:39:35;;;;;;;3.42;0.93;;;;;;;;;;10530777;28;20545;-75
2023/11/27 02:44:38;;;;;;;2.30;0.63;;;;;;;;;;10555129;28;20408;-75
2023/11/27 02:49:42;;;;;;;1.13;0.40;;;;;;;;;;10523967;27;20540;-75
2023/11/27 02:54:47;;;;;;;0.98;0.52;;;;;;;;;;10521159;28;20103;-75
2023/11/27 02:59:50;;;;;;;1.03;0.57;;;;;;;;;;10553428;27;20050;-74
2023/11/27 03:04:54;;;;;;;1.15;0.68;;;;;;;;;;10539990;27;20421;-74
2023/11/27 03:09:59;;;;;;;1.98;0.98;;;;;;;;;;10537093;27;20508;-75
2023/11/27 03:15:02;;;;;;;0.75;0.60;;;;;;;;;;10557485;27;20032;-75
2023/11/27 03:20:08;;;;;;;3.15;0.63;;;;;;;;;;10531585;27;20080;-76
2023/11/27 03:25:13;;;;;;;0.65;0.28;;;;;;;;;;10555168;27;20035;-75
2023/11/27 03:30:16;;;;;;;0.68;0.60;;;;;;;;;;10554187;27;20055;-75
2023/11/27 03:35:19;;;;;;;0.35;0.17;;;;;;;;;;10538324;27;20904;-75
2023/11/27 03:40:24;;;;;;;0.55;0.43;;;;;;;;;;10535867;28;20054;-75
2023/11/27 03:45:28;;;;;;;0.55;0.55;;;;;;;;;;10556061;27;20054;-78
2023/11/27 03:50:30;;;;;;;1.48;0.93;;;;;;;;;;10536457;28;20548;-75
2023/11/27 03:55:35;;;;;;;2.05;1.23;;;;;;;;;;10521232;27;20071;-75
2023/11/27 04:00:37;;;;;;;0.38;0.35;;;;;;;;;;10553665;28;20119;-74
2023/11/27 04:05:41;;;;;;;1.38;1.27;;;;;;;;;;10540996;27;20504;-74
2023/11/27 04:10:46;;;;;;;1.60;0.87;;;;;;;;;;10553490;27;20032;-74
2023/11/27 04:15:49;;;;;;;2.50;0.90;;;;;;;;;;10535713;27;20048;-74
2023/11/27 04:20:52;;;;;;;1.00;0.53;;;;;;;;;;10530728;28;20097;-75
2023/11/27 04:25:57;;;;;;;4.65;1.20;;;;;;;;;;10540278;28;20059;-74
2023/11/27 04:31:00;;;;;;;3.17;0.55;;;;;;;;;;10547018;27;20067;-74
2023/11/27 04:36:05;;;;;;;0.82;0.50;;;;;;;;;;10533268;28;20477;-75
2023/11/27 04:41:09;;;;;;;0.93;0.67;;;;;;;;;;10527812;27;20472;-75
2023/11/27 04:46:13;;;;;;;;;;;;;;;;;;10548417;27;20051;-75
2023/11/27 04:51:15;;;;;;;1.80;0.53;;;;;;;;;;10550061;27;19951;-75
2023/11/27 04:56:21;;;;;;;0.73;0.60;;;;;;;;;;10533692;28;20085;-74
2023/11/27 05:01:25;;;;;;;0.10;0.10;;;;;;;;;;10508750;28;20134;-75
2023/11/27 05:06:28;;;;;;;0.20;0.20;;;;;;;;;;10527350;27;20401;-74
2023/11/27 05:11:32;;;;;;;1.80;0.70;;;;;;;;;;10546818;28;20671;-75
2023/11/27 05:16:35;;;;;;;;;;;;;;;;;;10534097;27;20039;-75
2023/11/27 05:21:38;;;;;;;2.67;0.33;;;;;;;;;;10554246;27;19924;-75
2023/11/27 05:26:42;;;;;;;0.53;0.50;;;;;;;;;;10529424;28;20040;-75
2023/11/27 05:31:45;;;;;;;1.00;0.60;;;;;;;;;;10529789;28;20042;-75
2023/11/27 05:36:49;;;;;;;2.20;0.73;;;;;;;;;;10514737;28;20093;-75
2023/11/27 05:41:53;;;;;;;1.10;0.47;;;;;;;;;;10529539;28;20070;-74
2023/11/27 05:46:56;;;;;;;0.30;0.30;;;;;;;;;;10560649;27;20040;-75
2023/11/27 05:52:00;;;;;;;0.30;0.30;;;;;;;;;;10546482;28;20485;-75
2023/11/27 05:57:04;;;;;;;0.88;0.43;;;;;;;;;;10535229;28;20086;-76
2023/11/27 06:02:07;;;;;;;;;;;;;;;;;;10535567;28;20105;-75
2023/11/27 06:07:10;;;;;;;1.17;0.77;;;;;;;;;;10553194;28;20750;-74
2023/11/27 06:12:14;;;;;;;0.13;0.13;;;;;;;;;;10551074;28;20042;-74
2023/11/27 06:17:17;;;;;;;0.37;0.17;;;;;;;;;;10535518;27;20052;-73
2023/11/27 06:22:20;;;;;;;0.87;0.50;;;;;;;;;;10544893;28;20067;-75
2023/11/27 06:27:26;;;;;;;0.37;0.23;;;;;;;;;;10572191;27;20555;-74
2023/11/27 06:32:30;;;;;;;1.80;0.70;;;;;;;;;;10557794;27;20880;-75
2023/11/27 06:37:34;;;;;;;1.05;0.52;;;;;;;;;;10538137;27;20036;-74
2023/11/27 06:42:38;;;;;;;2.83;0.80;;;;;;;;;;10551833;27;20988;-74
2023/11/27 06:47:41;;;;;;;;;;;;;;;;;;10554651;27;20276;-75
2023/11/27 06:52:45;;;;;;;0.40;0.35;;;;;;;;;;10560107;27;19924;-75
2023/11/27 06:57:50;;;;;;;0.53;0.30;;;;;;;;;;10540269;27;20119;-75
2023/11/27 07:02:53;;;;;;;0.40;0.40;;;;;;;;;;10569999;27;20032;-75
2023/11/27 07:07:55;;;;;;;6.63;1.05;;;;;;;;;;10525761;27;20481;-75
2023/11/27 07:13:00;;;;;;;2.77;1.10;;;;;;;;;;10556782;28;20136;-76
2023/11/27 07:18:06;;;;;;;1.08;0.68;;;;;;;;;;10554763;27;20051;-74
2023/11/27 07:23:22;;;;;;;1.73;0.90;;;;;;;;;;10538946;27;20048;-74
2023/11/27 07:28:26;;;;;;;1.15;0.85;;;;;;;;;;10537916;27;20109;-74
2023/11/27 07:33:29;;;;;;;1.13;0.70;;;;;;;;;;10533077;27;20043;-75
2023/11/27 07:38:32;;;;;;;1.02;0.70;;;;;;;;;;10529215;27;20774;-75
2023/11/27 07:43:36;;;;;;;3.42;1.20;;;;;;;;;;10528680;27;20522;-74
2023/11/27 07:48:39;;;;;;;;;;;;;;;;;;10527759;27;20052;-74
2023/11/27 07:53:43;;;;;;;4.05;0.90;;;;;;;;;;10565605;27;19928;-74
2023/11/27 07:58:48;;;;;;;6.43;2.00;;;;;;;;;;10545878;27;20047;-74
2023/11/27 08:03:52;;;;;;;1.95;0.75;;;;;;;;;;10565227;27;20341;-74
2023/11/27 08:08:57;;;;;;;2.28;0.82;;;;;;;;;;10528274;27;20047;-74
2023/11/27 08:14:02;;;;;;;2.45;1.35;;;;;;;;;;10527494;27;20074;-75
2023/11/27 08:19:20;;;;;;;3.45;1.00;;;;;;;;;;10548027;27;20047;-75
2023/11/27 08:24:24;;;;;;;7.90;1.85;;;;;;;;;;10531227;27;20048;-75
2023/11/27 08:29:27;;;;;;;;;;;;;;;;;;10547048;27;20043;-75
2023/11/27 08:34:32;;;;;;;5.70;2.33;;;;;;;;;;10557981;27;19931;-74
2023/11/27 08:39:34;;;;;;;2.25;1.38;;;;;;;;;;10523956;27;20699;-74
2023/11/27 08:44:38;;;;;;;3.03;1.20;;;;;;;;;;10525307;27;20255;-75
2023/11/27 08:49:42;;;;;;;3.30;1.20;;;;;;;;;;10523232;27;20050;-74
2023/11/27 08:54:46;;;;;;;1.08;0.70;;;;;;;;;;10524372;28;20051;-74
2023/11/27 08:59:50;;;;;;;0.82;0.82;;;;;;;;;;10526139;27;20319;-74
2023/11/27 09:04:55;;;;;;;0.98;0.85;;;;;;;;;;10539583;27;20431;-74
2023/11/27 09:10:02;;;;;;;2.15;1.60;;;;;;;;;;10554369;28;20112;-74
2023/11/27 09:15:06;;;;;;;1.45;1.33;;;;;;;;;;10545553;27;20637;-75
2023/11/27 09:20:15;;;;;;;3.65;1.13;;;;;;;;;;10553561;27;20428;-75
2023/11/27 09:25:19;;;;;;;2.10;1.00;;;;;;;;;;10527042;27;20499;-74
2023/11/27 09:30:23;;;;;;;2.13;1.60;;;;;;;;;;10547810;27;20039;-75
2023/11/27 09:35:29;;;;;;;2.90;1.47;;;;;;;;;;10544239;28;20480;-75
2023/11/27 09:40:39;;;;;;;2.00;1.20;;;;;;;;;;10524334;28;20745;-75
2023/11/27 09:45:42;;;;;;;3.60;1.52;;;;;;;;;;10544022;28;20044;-75
2023/11/27 09:50:49;;;;;;;1.30;1.20;;;;;;;;;;10520823;27;20089;-75
2023/11/27 09:55:54;;;;;;;1.80;1.40;;;;;;;;;;10538375;27;20499;-75
2023/11/27 10:00:57;;;;;;;1.20;1.10;;;;;;;;;;10568471;27;20169;-75
2023/11/27 10:06:02;;;;;;;1.17;1.00;;;;;;;;;;10537113;27;20036;-73
2023/11/27 10:11:09;;;;;;;5.25;1.15;;;;;;;;;;10532011;27;20059;-75
2023/11/27 10:16:13;;;;;;;1.58;1.08;;;;;;;;;;10554503;27;20101;-76
2023/11/27 10:21:18;;;;;;;0.97;0.80;;;;;;;;;;10554665;27;20044;-74
2023/11/27 10:26:21;;;;;;;1.05;0.80;;;;;;;;;;10537627;27;20342;-74
2023/11/27 10:31:26;;;;;;;0.80;0.60;;;;;;;;;;10549353;27;20153;-74
2023/11/27 10:36:31;;;;;;;1.88;0.93;;;;;;;;;;10552594;27;20058;-74
2023/11/27 10:41:35;;;;;;;1.02;0.52;;;;;;;;;;10527001;27;20047;-75
2023/11/27 10:46:39;;;;;;;3.40;0.90;;;;;;;;;;10542498;27;20039;-75
2023/11/27 10:51:44;;;;;;;1.15;0.82;;;;;;;;;;10562972;27;20447;-75
2023/11/27 10:56:48;;;;;;;1.92;0.90;;;;;;;;;;10545424;27;20130;-75
2023/11/27 11:01:55;;;;;;;0.70;0.40;;;;;;;;;;10546787;27;20043;-75
2023/11/27 11:07:02;;;;;;;2.25;0.75;;;;;;;;;;10547627;27;20100;-75
2023/11/27 11:12:06;;;;;;;1.27;0.75;;;;;;;;;;10545788;27;20139;-75
2023/11/27 11:17:16;;;;;;;2.53;0.93;;;;;;;;;;10534148;27;20177;-75
2023/11/27 11:22:26;;;;;;;1.42;0.98;;;;;;;;;;10550942;27;20553;-75
2023/11/27 11:27:31;;;;;;;1.92;0.98;;;;;;;;;;10530286;27;20626;-73
2023/11/27 11:32:38;;;;;;;1.75;0.90;;;;;;;;;;10558061;27;20071;-74
2023/11/27 11:37:49;;;;;;;0.38;0.38;;;;;;;;;;10527577;27;20039;-73
2023/11/27 11:42:57;;;;;;;0.93;0.70;;;;;;;;;;10530296;27;20499;-73
2023/11/27 11:48:07;;;;;;;4.93;1.17;;;;;;;;;;10564042;27;20048;-74
2023/11/27 11:53:25;;;;;;;3.90;1.38;;;;;;;;;;10530719;28;20205;-74
2023/11/27 11:58:29;;;;;;;3.08;1.00;;;;;;;;;;10529506;28;20259;-74
2023/11/27 12:03:34;;;;;;;1.55;1.25;;;;;;;;;;10559328;27;20067;-74
2023/11/27 12:08:38;;;;;;;1.02;0.90;;;;;;;;;;10548126;27;20250;-74
2023/11/27 12:13:44;;;;;;;0.88;0.80;;;;;;;;;;10526408;28;21155;-74
2023/11/27 12:18:49;;;;;;;1.27;0.90;;;;;;;;;;10521618;28;20047;-74
2023/11/27 12:23:53;;;;;;;2.15;0.98;;;;;;;;;;10562297;27;20059;-75
2023/11/27 12:28:58;;;;;;;0.90;0.52;;;;;;;;;;10546953;27;20142;-74
2023/11/27 12:34:03;;;;;;;4.97;0.63;;;;;;;;;;10548777;27;20039;-75
2023/11/27 12:39:10;;;;;;;1.65;0.60;;;;;;;;;;10530806;27;20063;-75
2023/11/27 12:44:16;;;;;;;3.72;0.85;;;;;;;;;;10525646;27;20040;-75
2023/11/27 12:49:20;;;;;;;0.60;0.50;;;;;;;;;;10522294;28;20043;-75
2023/11/27 12:54:31;;;;;;;4.75;1.20;;;;;;;;;;10540344;27;20794;-75
2023/11/27 12:59:39;;;;;;;1.48;1.00;;;;;;;;;;10523128;27;20522;-75
2023/11/27 13:04:44;;;;;;;0.60;0.43;;;;;;;;;;10555034;27;20050;-75
2023/11/27 13:09:52;;;;;;;3.22;1.00;;;;;;;;;;10523014;27;20052;-74
2023/11/27 13:14:57;;;;;;;0.32;0.32;;;;;;;;;;10547583;28;20518;-73
2023/11/27 13:20:07;;;;;;;4.47;1.08;;;;;;;;;;10545925;27;20048;-74
2023/11/27 13:25:15;;;;;;;0.75;0.52;;;;;;;;;;10529931;27;20039;-74
2023/11/27 13:30:28;;;;;;;2.78;0.45;;;;;;;;;;10532756;28;20051;-74
2023/11/27 13:35:33;;;;;;;1.33;0.70;;;;;;;;;;10529826;28;20517;-75
2023/11/27 13:40:37;;;;;;;1.73;0.80;;;;;;;;;;10546921;28;20051;-74
2023/11/27 13:45:46;;;;;;;1.77;1.15;;;;;;;;;;10545032;28;20501;-73
2023/11/27 13:50:50;;;;;;;1.90;0.50;;;;;;;;;;10544515;28;20089;-74
2023/11/27 13:55:56;;;;;;;1.93;0.53;;;;;;;;;;10542326;28;20151;-75
2023/11/27 14:01:03;;;;;;;2.00;1.08;;;;;;;;;;10524340;28;20048;-74
2023/11/27 14:06:15;;;;;;;3.00;1.40;;;;;;;;;;10531343;28;20039;-74
2023/11/27 14:11:22;;;;;;;1.67;0.77;;;;;;;;;;10528081;28;20354;-74
2023/11/27 14:16:42;;;;;;;0.60;0.60;;;;;;;;;;10533375;28;20073;-75
2023/11/27 14:27:37;;;;;;;0.45;0.30;;;;;;;;;;10531302;28;20032;-74
2023/11/27 14:32:41;;;;;;;3.75;1.30;;;;;;;;;;10516696;28;20059;-74
2023/11/27 14:37:45;;;;;;;0.50;0.47;;;;;;;;;;10511087;28;20118;-74
2023/11/27 14:42:49;;;;;;;0.70;0.50;;;;;;;;;;10571812;27;20043;-74
2023/11/27 14:47:54;;;;;;;0.90;0.57;;;;;;;;;;10535797;27;20152;-74
2023/11/27 14:52:57;;;;;;;0.95;0.60;;;;;;;;;;10553155;27;20724;-74
2023/11/27 14:58:01;;;;;;;0.38;0.38;;;;;;;;;;10533289;28;20044;-74
2023/11/27 15:03:11;;;;;;;0.90;0.57;;;;;;;;;;10537818;27;20114;-74
2023/11/27 15:08:14;;;;;;;2.85;1.17;;;;;;;;;;10553778;27;20378;-74
2023/11/27 15:13:19;;;;;;;3.05;1.20;;;;;;;;;;10530683;27;20096;-74
2023/11/27 15:18:24;;;;;;;0.38;0.20;;;;;;;;;;10533524;27;20186;-74
2023/11/27 15:23:28;;;;;;;1.17;0.85;;;;;;;;;;10536599;28;20054;-75
2023/11/27 15:28:32;;;;;;;1.23;0.68;;;;;;;;;;10551760;27;20040;-75
2023/11/27 15:33:37;;;;;;;4.28;1.08;;;;;;;;;;10529838;27;20038;-75
2023/11/27 15:38:42;;;;;;;1.58;0.65;;;;;;;;;;10546727;27;20040;-74
2023/11/27 15:43:45;;;;;;;2.05;1.15;;;;;;;;;;10533250;27;20591;-74
2023/11/27 15:48:49;;;;;;;2.60;0.87;;;;;;;;;;10536426;27;20031;-74
2023/11/27 15:53:52;;;;;;;;;;;;;;;;;;10531202;27;20607;-74
2023/11/27 15:58:56;;;;;;;4.07;1.17;;;;;;;;;;10529262;28;19930;-74
2023/11/27 16:04:04;;;;;;;8.70;2.95;;;;;;;;;;10517968;27;20044;-74
2023/11/27 16:09:09;;;;;;;1.38;0.68;;;;;;;;;;10534363;27;20382;-73
2023/11/27 16:14:13;;;;;;;3.03;0.98;;;;;;;;;;10531135;28;20444;-74
2023/11/27 16:19:20;;;;;;;0.75;0.50;;;;;;;;;;10552711;27;20062;-74
2023/11/27 16:24:24;;;;;;;5.47;1.45;;;;;;;;;;10526217;28;20043;-75
2023/11/27 16:29:29;;;;;;;2.92;1.70;;;;;;;;;;10551536;27;20047;-75
2023/11/27 16:34:35;;;;;;;3.15;1.13;;;;;;;;;;10547947;27;20600;-73
2023/11/27 16:39:37;;;;;;;3.60;1.33;;;;;;;;;;10535923;27;20039;-73
2023/11/27 16:44:41;;;;;;;4.07;1.97;;;;;;;;;;10528012;27;20036;-76
2023/11/27 16:49:59;;;;;;;6.82;2.00;;;;;;;;;;10519607;27;20051;-74
2023/11/27 16:55:07;;;;;;;6.32;1.88;;;;;;;;;;10561207;27;20048;-75
2023/11/27 17:00:11;;;;;;;6.15;2.40;;;;;;;;;;10517453;28;20118;-75
2023/11/27 17:05:18;;;;;;;5.25;1.90;;;;;;;;;;10545401;27;20071;-77
2023/11/27 17:10:27;;;;;;;5.75;1.80;;;;;;;;;;10545993;27;20039;-74
2023/11/27 17:15:30;;;;;;;2.50;1.10;;;;;;;;;;10544064;27;20744;-74
2023/11/27 17:20:35;;;;;;;2.10;1.20;;;;;;;;;;10532630;28;20545;-75
2023/11/27 17:25:38;;;;;;;1.95;1.08;;;;;;;;;;10530934;28;20054;-73
2023/11/27 17:30:42;;;;;;;3.67;1.17;;;;;;;;;;10546150;28;20581;-76
2023/11/27 17:35:49;;;;;;;4.15;1.50;;;;;;;;;;10522640;28;20141;-74
2023/11/27 17:40:51;;;;;;;1.50;0.80;;;;;;;;;;10530726;28;20050;-74
2023/11/27 17:45:55;;;;;;;1.58;0.93;;;;;;;;;;10525720;28;20125;-74
2023/11/27 17:51:00;;;;;;;2.83;1.40;;;;;;;;;;10530148;28;20051;-74
2023/11/27 17:56:07;;;;;;;2.20;1.05;;;;;;;;;;10547735;28;20047;-73
2023/11/27 18:01:10;;;;;;;1.80;1.10;;;;;;;;;;10544789;28;20075;-76
2023/11/27 18:06:15;;;;;;;1.50;0.55;;;;;;;;;;10529410;28;20050;-75
2023/11/27 18:11:19;;;;;;;1.50;0.95;;;;;;;;;;10526520;28;20587;-75
2023/11/27 18:16:22;;;;;;;0.63;0.40;;;;;;;;;;10533295;28;20386;-74
2023/11/27 18:21:26;;;;;;;3.63;1.13;;;;;;;;;;10532806;27;20516;-74
2023/11/27 18:26:31;;;;;;;1.98;0.70;;;;;;;;;;10555768;27;20130;-74
2023/11/27 18:31:34;;;;;;;4.25;1.48;;;;;;;;;;10554967;28;20046;-73
2023/11/27 18:36:39;;;;;;;0.43;0.43;;;;;;;;;;10552231;28;20373;-74
2023/11/27 18:41:41;;;;;;;;;;;;;;;;;;10565970;28;20032;-73
2023/11/27 18:46:44;;;;;;;1.17;0.90;;;;;;;;;;10549911;27;20586;-74
2023/11/27 18:51:49;;;;;;;1.70;0.93;;;;;;;;;;10566963;28;20063;-74
2023/11/27 18:56:52;;;;;;;2.70;1.45;;;;;;;;;;10571767;27;20054;-75
2023/11/27 19:01:54;;;;;;;1.35;0.77;;;;;;;;;;10545997;28;20485;-75
2023/11/27 19:06:59;;;;;;;3.05;1.40;;;;;;;;;;10549415;28;20168;-76
2023/11/27 19:12:03;;;;;;;2.40;1.15;;;;;;;;;;10568657;28;20051;-75
2023/11/27 19:17:06;;;;;;;2.38;0.95;;;;;;;;;;10570650;27;20038;-74
2023/11/27 19:22:12;;;;;;;0.80;0.33;;;;;;;;;;10550184;28;20048;-75
2023/11/27 19:27:15;;;;;;;2.75;1.23;;;;;;;;;;10565857;27;20044;-75
2023/11/27 19:32:19;;;;;;;1.73;0.73;;;;;;;;;;10562928;28;20330;-75
2023/11/27 19:37:23;;;;;;;2.50;1.00;;;;;;;;;;10564094;28;20097;-74
2023/11/27 19:42:30;;;;;;;4.70;1.50;;;;;;;;;;10568103;27;20047;-74
2023/11/27 19:47:35;;;;;;;12.85;3.78;;;;;;;;;;10566786;27;20044;-75
2023/11/27 19:52:41;;;;;;;5.90;2.67;;;;;;;;;;10569290;27;20047;-76
2023/11/27 19:57:44;;;;;;;2.80;1.23;;;;;;;;;;10550774;27;20051;-76
2023/11/27 20:02:54;;;;;;;5.10;1.83;;;;;;;;;;10549223;27;20060;-75
2023/11/27 20:07:59;;;;;;;2.63;1.48;;;;;;;;;;10568478;28;20035;-76
2023/11/27 20:13:02;;;;;;;3.45;1.55;;;;;;;;;;10573408;27;20036;-76
2023/11/27 20:18:06;;;;;;;4.85;1.58;;;;;;;;;;10550547;28;20762;-76
2023/11/27 20:23:10;;;;;;;4.53;2.38;;;;;;;;;;10546168;28;20408;-75
2023/11/27 20:28:12;;;;;;;;;;;;;;;;;;10570122;27;20043;-74
2023/11/27 20:33:31;;;;;;;1.73;1.47;;;;;;;;;;10563173;27;19927;-75
2023/11/27 20:38:35;;;;;;;3.25;1.50;;;;;;;;;;10563758;27;20059;-77
2023/11/27 20:43:38;;;;;;;;;;;;;;;;;;10546684;28;20538;-75
2023/11/27 20:48:41;;;;;;;5.20;3.05;;;;;;;;;;10568733;27;19946;-76
2023/11/27 20:53:46;;;;;;;3.53;1.63;;;;;;;;;;10567718;28;20528;-76
2023/11/27 20:58:50;;;;;;;6.20;3.15;;;;;;;;;;10568335;27;20039;-76
2023/11/27 21:03:54;;;;;;;5.10;2.63;;;;;;;;;;10564211;28;20027;-76
2023/11/27 21:08:59;;;;;;;4.22;1.95;;;;;;;;;;10568321;28;20063;-75
2023/11/27 21:14:02;;;;;;;2.92;1.60;;;;;;;;;;10550506;27;20043;-76
2023/11/27 21:19:06;;;;;;;5.60;2.63;;;;;;;;;;10544240;28;20352;-76
2023/11/27 21:24:09;;;;;;;;;;;;;;;;;;10531870;27;20043;-77
2023/11/27 21:29:15;;;;;;;4.53;1.98;;;;;;;;;;10564607;28;19919;-76
2023/11/27 21:34:18;;;;;;;4.57;2.60;;;;;;;;;;10546159;28;20140;-76
2023/11/27 21:39:21;;;;;;;6.50;2.73;;;;;;;;;;10577197;27;20123;-77
2023/11/27 21:44:25;;;;;;;5.50;2.38;;;;;;;;;;10546873;28;20758;-77
2023/11/27 21:49:28;;;;;;;;;;;;;;;;;;10572676;27;20051;-78
2023/11/27 21:54:31;;;;;;;4.53;1.83;;;;;;;;;;10562169;27;20018;-76
2023/11/27 21:59:35;;;;;;;5.10;2.90;;;;;;;;;;10544951;27;20104;-77
2023/11/27 22:04:38;;;;;;;6.75;3.33;;;;;;;;;;10581800;27;20078;-75
2023/11/27 22:09:42;;;;;;;6.82;2.85;;;;;;;;;;10579203;27;20237;-77
2023/11/27 22:14:47;;;;;;;6.47;3.38;;;;;;;;;;10561704;27;20043;-77
2023/11/27 22:19:51;;;;;;;3.70;1.80;;;;;;;;;;10541624;27;20512;-76
2023/11/27 22:24:54;;;;;;;5.67;2.37;;;;;;;;;;10559553;27;20477;-75
2023/11/27 22:29:59;;;;;;;7.00;3.13;;;;;;;;;;10554289;27;20060;-78
2023/11/27 22:35:02;;;;;;;3.40;1.80;;;;;;;;;;10560621;27;20074;-77
2023/11/27 22:40:06;;;;;;;1.80;1.42;;;;;;;;;;10543790;27;20084;-77
2023/11/27 22:45:11;;;;;;;6.80;2.80;;;;;;;;;;10558720;27;20435;-77
2023/11/27 22:50:18;;;;;;;2.42;1.50;;;;;;;;;;10578256;27;20116;-76
2023/11/27 22:55:21;;;;;;;3.83;2.38;;;;;;;;;;10579151;27;20054;-77
2023/11/27 23:00:26;;;;;;;2.63;1.50;;;;;;;;;;10557749;27;20032;-77
2023/11/27 23:05:30;;;;;;;3.60;1.92;;;;;;;;;;10567912;28;20051;-78
2023/11/27 23:10:33;;;;;;;8.20;4.43;;;;;;;;;;10543703;27;20039;-77
2023/11/27 23:15:40;;;;;;;7.37;3.27;;;;;;;;;;10544805;27;20040;-77
2023/11/27 23:20:43;;;;;;;7.07;3.67;;;;;;;;;;10539652;27;20048;-78
2023/11/27 23:25:46;;;;;;;6.25;2.78;;;;;;;;;;10558273;27;20111;-77
2023/11/27 23:30:50;;;;;;;2.25;1.20;;;;;;;;;;10532470;28;20054;-77
2023/11/27 23:35:54;;;;;;;6.63;2.83;;;;;;;;;;10554650;27;20047;-77
2023/11/27 23:40:57;;;;;;;3.00;1.38;;;;;;;;;;10555650;27;20126;-77
2023/11/27 23:46:02;;;;;;;5.95;3.10;;;;;;;;;;10524668;27;20051;-78
2023/11/27 23:51:06;;;;;;;4.43;1.85;;;;;;;;;;10537154;27;20408;-77
2023/11/27 23:56:09;;;;;;;4.57;2.03;;;;;;;;;;10544894;27;20130;-77
